Time;durP1;ratioP1;P1;durP2;ratioP2;P2;SDS_P1;SDS_P2;PMS_P1;PMS_P2;Temp;Humidity;BMP_temperature;BMP_pressure;BME280_temperature;BME280_humidity;BME280_pressure;Samples;Min_cycle;Max_cycle;Signal;HPM_P1;HPM_P2
2021/08/02 00:01:08;;;;;;;;;2.25;2.25;;;;;27.02;39.48;101275.34;4931669;28;45504;-72
2021/08/02 00:03:51;;;;;;;;;2.00;2.00;;;;;27.04;39.71;101283.94;4925534;28;45381;-72
2021/08/02 00:06:23;;;;;;;;;4.50;2.75;;;;;27.05;39.21;101282.13;4932525;28;45527;-72
2021/08/02 00:08:56;;;;;;;;;4.50;4.00;;;;;27.04;39.79;101283.94;4932446;28;45481;-72
2021/08/02 00:11:29;;;;;;;;;2.75;2.75;;;;;27.01;39.64;101283.56;4928824;28;45568;-73
2021/08/02 00:13:57;;;;;;;;;1.25;1.25;;;;;27.04;39.58;101286.63;4930674;28;45612;-72
2021/08/02 00:16:23;;;;;;;;;4.00;2.00;;;;;27.06;39.45;101283.78;4925949;28;47077;-72
2021/08/02 00:18:48;;;;;;;;;2.25;2.00;;;;;27.02;39.70;101277.16;4930509;28;45515;-72
2021/08/02 00:21:14;;;;;;;;;4.00;3.00;;;;;27.02;39.15;101280.66;4929597;28;45325;-72
2021/08/02 00:23:40;;;;;;;;;4.00;4.00;;;;;27.02;39.22;101279.84;4927058;28;45941;-73
2021/08/02 00:26:07;;;;;;;;;4.75;2.50;;;;;27.01;39.32;101279.00;4929740;28;47022;-72
2021/08/02 00:28:34;;;;;;;;;1.25;1.25;;;;;27.02;39.43;101280.66;4932789;28;45413;-72
2021/08/02 00:31:00;;;;;;;;;2.00;2.00;;;;;27.01;39.68;101276.34;4928443;28;45548;-72
2021/08/02 00:33:26;;;;;;;;;4.00;4.00;;;;;27.02;39.36;101278.00;4933567;28;45459;-72
2021/08/02 00:36:06;;;;;;;;;1.50;1.50;;;;;27.02;39.48;101280.66;4926162;28;46883;-72
2021/08/02 00:38:38;;;;;;;;;2.00;2.00;;;;;27.02;39.77;101278.00;4927154;28;45456;-72
2021/08/02 00:41:32;;;;;;;;;3.50;1.50;;;;;27.03;39.43;101276.16;4929560;28;45228;-73
2021/08/02 00:44:16;;;;;;;;;1.75;1.75;;;;;27.03;39.44;101277.00;4930670;28;45341;-72
2021/08/02 00:46:50;;;;;;;;;3.25;3.00;;;;;27.02;39.08;101275.34;4925384;28;46256;-72
2021/08/02 00:49:16;;;;;;;;;5.00;4.00;;;;;27.03;39.54;101274.31;4927332;28;45314;-73
2021/08/02 00:51:49;;;;;;;;;3.75;3.75;;;;;27.04;39.47;101272.44;4929070;28;45504;-72
2021/08/02 00:54:15;;;;;;;;;2.75;2.75;;;;;27.05;39.32;101271.44;4929723;28;45501;-72
2021/08/02 00:56:40;;;;;;;;;2.50;2.25;;;;;27.02;39.61;101259.31;4935396;28;47180;-73
2021/08/02 00:59:07;;;;;;;;;3.50;2.25;;;;;27.03;39.64;101271.66;4930255;28;45302;-72
2021/08/02 01:01:35;;;;;;;;;3.00;3.00;;;;;27.04;39.38;101272.44;4930549;28;45575;-72
2021/08/02 01:04:01;;;;;;;;;2.00;2.00;;;;;27.03;39.62;101265.47;4927453;28;45747;-72
2021/08/02 01:06:31;;;;;;;;;1.25;1.25;;;;;27.04;39.29;101277.78;4926254;28;46295;-72
2021/08/02 01:09:01;;;;;;;;;3.33;2.33;;;;;27.03;39.36;101268.16;4926945;28;45312;-72
2021/08/02 01:11:28;;;;;;;;;1.75;1.75;;;;;27.02;39.69;101270.00;4926546;28;45515;-72
2021/08/02 01:13:55;;;;;;;;;2.00;2.00;;;;;27.03;39.36;101274.31;4926850;28;45532;-73
2021/08/02 01:16:21;;;;;;;;;4.00;3.00;;;;;27.02;39.43;101264.66;4928043;28;46517;-72
2021/08/02 01:18:48;;;;;;;;;2.50;2.50;;;;;27.02;39.54;101266.50;4929248;28;45683;-72
2021/08/02 01:21:19;;;;;;;;;3.25;2.25;;;;;27.02;39.54;101274.50;4926575;28;45602;-72
2021/08/02 01:23:46;;;;;;;;;2.00;2.00;;;;;27.02;39.51;101271.84;4930096;28;45422;-72
2021/08/02 01:26:42;;;;;;;;;2.75;2.00;;;;;27.01;39.37;101270.22;4930145;28;47059;-73
2021/08/02 01:29:45;;;;;;;;;3.00;3.00;;;;;27.02;39.45;101271.84;4928741;28;45452;-72
2021/08/02 01:32:11;;;;;;;;;1.25;1.25;;;;;26.98;39.68;101263.44;4930955;28;45567;-73
2021/08/02 01:34:37;;;;;;;;;3.00;2.50;;;;;26.92;39.15;101270.41;4933809;28;49054;-73
2021/08/02 01:37:02;;;;;;;;;2.00;2.00;;;;;26.98;39.47;101282.13;4928067;28;45546;-73
2021/08/02 01:39:28;;;;;;;;;2.75;2.75;;;;;26.95;39.29;101272.66;4928035;28;45521;-72
2021/08/02 01:41:53;;;;;;;;;2.75;2.75;;;;;26.99;39.56;101281.06;4932875;28;45688;-72
2021/08/02 01:44:19;;;;;;;;;3.25;3.25;;;;;27.01;39.44;101278.22;4931500;28;47279;-72
2021/08/02 01:46:53;;;;;;;;;2.75;2.25;;;;;27.00;39.62;101272.03;4931856;28;47090;-73
2021/08/02 01:49:31;;;;;;;;;2.00;2.00;;;;;27.01;39.28;101280.88;4927789;28;45220;-72
2021/08/02 01:51:57;;;;;;;;;2.00;2.00;;;;;27.01;39.48;101284.34;4925698;28;45500;-72
2021/08/02 01:54:47;;;;;;;;;3.00;3.00;;;;;27.00;39.32;101277.38;4934126;28;45519;-72
2021/08/02 01:57:21;;;;;;;;;2.50;1.50;;;;;26.99;39.42;101289.09;4929904;28;47227;-72
2021/08/02 02:00:12;;;;;;;;;2.00;2.00;;;;;26.99;39.42;101286.41;4931432;28;45385;-72
2021/08/02 02:02:39;;;;;;;;;3.50;1.25;;;;;26.99;39.56;101280.25;4931164;28;45445;-72
2021/08/02 02:05:17;;;;;;;;;2.00;2.00;;;;;27.00;39.77;101276.56;4932394;28;45533;-72
2021/08/02 02:08:12;;;;;;;;;2.00;2.00;;;;;27.00;39.47;101273.88;4932723;28;47112;-72
2021/08/02 02:10:41;;;;;;;;;3.00;3.00;;;;;26.98;39.49;101274.09;4930198;28;45472;-73
2021/08/02 02:13:13;;;;;;;;;2.25;2.00;;;;;27.01;39.46;101278.22;4932638;28;45469;-72
2021/08/02 02:15:39;;;;;;;;;2.00;2.00;;;;;26.99;39.56;101277.56;4931440;28;45576;-73
2021/08/02 02:18:08;;;;;;;;;2.50;1.50;;;;;26.99;39.89;101273.06;4929788;28;47287;-73
2021/08/02 02:20:34;;;;;;;;;3.00;3.00;;;;;27.01;39.76;101278.22;4937419;28;45467;-72
2021/08/02 02:23:00;;;;;;;;;3.50;3.50;;;;;26.99;39.18;101277.56;4931005;28;45466;-72
2021/08/02 02:25:26;;;;;;;;;4.75;3.00;;;;;27.01;39.87;101280.88;4932464;28;45533;-72
2021/08/02 02:27:52;;;;;;;;;2.75;2.75;;;;;27.00;39.48;101274.72;4933641;28;46022;-73
2021/08/02 02:30:18;;;;;;;;;1.75;1.75;;;;;27.01;39.47;101283.56;4932943;28;45532;-73
2021/08/02 02:32:44;;;;;;;;;1.00;1.00;;;;;26.98;39.51;101281.28;4934256;28;45434;-72
2021/08/02 02:35:10;;;;;;;;;2.75;2.75;;;;;27.00;39.37;101274.72;4934156;28;45411;-72
2021/08/02 02:37:37;;;;;;;;;2.00;2.00;;;;;26.99;39.39;101272.22;4934760;28;47143;-73
2021/08/02 02:40:03;;;;;;;;;3.50;3.50;;;;;27.00;39.54;101273.88;4931646;28;45505;-72
2021/08/02 02:42:30;;;;;;;;;6.00;3.00;;;;;26.99;39.60;101283.75;4928558;28;45478;-72
2021/08/02 02:44:56;;;;;;;;;2.00;2.00;;;;;26.99;39.76;101280.25;4936582;28;45520;-73
2021/08/02 02:47:23;;;;;;;;;3.25;2.75;;;;;26.96;39.34;101281.47;4932699;28;46113;-72
2021/08/02 02:49:50;;;;;;;;;2.00;2.00;;;;;26.99;39.48;101286.41;4932936;28;45511;-72
2021/08/02 02:52:15;;;;;;;;;2.50;1.25;;;;;26.97;39.29;101280.47;4934810;28;45412;-73
2021/08/02 02:54:47;;;;;;;;;3.75;3.75;;;;;26.99;39.61;101281.06;4932770;28;45578;-72
2021/08/02 02:57:13;;;;;;;;;2.50;2.50;;;;;26.98;39.63;101282.13;4930662;28;46494;-72
2021/08/02 02:59:38;;;;;;;;;2.75;2.75;;;;;26.94;39.54;101276.34;4927091;28;45496;-73
2021/08/02 03:02:04;;;;;;;;;1.75;1.75;;;;;26.99;39.54;101282.91;4933769;28;45645;-72
2021/08/02 03:04:32;;;;;;;;;2.00;2.00;;;;;26.97;39.50;101280.47;4931940;28;45450;-72
2021/08/02 03:07:00;;;;;;;;;3.00;3.00;;;;;26.97;39.67;101277.78;4934927;28;48213;-73
2021/08/02 03:09:29;;;;;;;;;2.25;2.25;;;;;26.97;39.60;101277.78;4935330;28;45408;-72
2021/08/02 03:11:54;;;;;;;;;1.25;1.25;;;;;26.94;39.40;101276.34;4936939;28;46883;-72
2021/08/02 03:14:20;;;;;;;;;3.75;2.00;;;;;26.97;39.53;101283.13;4933024;28;45735;-73
2021/08/02 03:16:45;;;;;;;;;2.50;2.00;;;;;26.98;39.57;101276.78;4930682;28;46307;-73
2021/08/02 03:19:11;;;;;;;;;1.75;1.25;;;;;26.98;39.61;101283.97;4933707;28;45442;-73
2021/08/02 03:21:36;;;;;;;;;2.00;2.00;;;;;26.99;39.45;101288.25;4930967;28;45560;-72
2021/08/02 03:24:02;;;;;;;;;2.50;1.50;;;;;26.96;39.75;101290.31;4936014;28;45526;-72
2021/08/02 03:26:32;;;;;;;;;2.00;2.00;;;;;26.98;39.55;101286.63;4929742;28;47033;-72
2021/08/02 03:29:06;;;;;;;;;1.50;1.50;;;;;26.97;39.63;101283.13;4930310;28;45520;-72
2021/08/02 03:31:41;;;;;;;;;4.00;2.00;;;;;26.96;39.35;101287.63;4931293;28;45444;-72
2021/08/02 03:34:08;;;;;;;;;3.00;3.00;;;;;26.96;39.47;101284.16;4929276;28;45697;-72
2021/08/02 03:36:35;;;;;;;;;2.00;2.00;;;;;26.95;39.23;101287.84;4931258;28;46289;-72
2021/08/02 03:39:01;;;;;;;;;3.00;3.00;;;;;26.99;39.65;101288.25;4932268;28;45845;-73
2021/08/02 03:41:27;;;;;;;;;2.00;2.00;;;;;26.98;39.84;101292.78;4932688;28;45513;-72
2021/08/02 03:43:53;;;;;;;;;3.75;2.00;;;;;26.95;40.04;101290.53;4933345;28;45496;-73
2021/08/02 03:46:21;;;;;;;;;2.25;2.25;;;;;26.95;39.72;101290.53;4934303;28;46313;-72
2021/08/02 03:48:47;;;;;;;;;2.00;2.00;;;;;26.98;39.51;101286.63;4934055;28;45472;-72
2021/08/02 03:51:12;;;;;;;;;1.00;1.00;;;;;26.96;39.77;101297.50;4929205;28;45556;-72
2021/08/02 03:53:43;;;;;;;;;3.25;3.25;;;;;26.98;39.69;101305.31;4926493;28;45653;-72
2021/08/02 03:56:10;;;;;;;;;3.00;1.25;;;;;26.97;39.88;101307.16;4927908;28;46154;-72
2021/08/02 03:58:35;;;;;;;;;2.50;1.00;;;;;26.97;39.36;101312.50;4931425;28;46177;-74
2021/08/02 04:01:01;;;;;;;;;3.00;3.00;;;;;26.96;39.46;101309.00;4930691;28;45516;-73
2021/08/02 04:03:26;;;;;;;;;4.00;3.00;;;;;26.98;39.48;101321.34;4927541;28;47363;-72
2021/08/02 04:05:54;;;;;;;;;2.25;2.25;;;;;26.98;39.76;101311.47;4929732;28;47001;-72
2021/08/02 04:08:20;;;;;;;;;2.00;2.00;;;;;26.95;39.72;101315.38;4934200;28;45418;-72
2021/08/02 04:10:45;;;;;;;;;3.50;2.25;;;;;26.93;39.78;101306.72;4931443;28;45220;-73
2021/08/02 04:13:10;;;;;;;;;2.00;2.00;;;;;26.92;39.25;101306.94;4933857;28;45631;-72
2021/08/02 04:15:37;;;;;;;;;2.50;2.00;;;;;26.96;39.73;101313.50;4927178;28;46127;-72
2021/08/02 04:18:03;;;;;;;;;2.00;2.00;;;;;26.96;39.62;101313.50;4932025;28;45448;-73
2021/08/02 04:20:28;;;;;;;;;2.25;2.25;;;;;26.94;39.79;101320.91;4932423;28;45619;-73
2021/08/02 04:22:53;;;;;;;;;2.00;2.00;;;;;26.94;39.74;101319.06;4932597;28;45393;-73
2021/08/02 04:25:19;;;;;;;;;2.00;2.00;;;;;26.92;39.98;101313.13;4932273;28;46117;-72
2021/08/02 04:27:44;;;;;;;;;3.00;2.00;;;;;26.95;39.78;101317.22;4927207;28;45456;-73
2021/08/02 04:30:10;;;;;;;;;1.50;1.50;;;;;26.94;39.70;101316.41;4933907;28;45338;-72
2021/08/02 04:32:35;;;;;;;;;4.00;4.00;;;;;26.94;39.83;101316.41;4930465;28;45543;-72
2021/08/02 04:35:01;;;;;;;;;2.00;2.00;;;;;26.96;39.64;101318.84;4929072;28;45974;-72
2021/08/02 04:37:26;;;;;;;;;2.00;2.00;;;;;26.98;39.29;101318.66;4929640;28;45499;-72
2021/08/02 04:39:54;;;;;;;;;2.25;2.25;;;;;26.96;39.46;101318.84;4933061;28;45422;-72
2021/08/02 04:42:20;;;;;;;;;5.00;3.25;;;;;26.97;39.70;101323.19;4932044;28;45598;-72
2021/08/02 04:44:45;;;;;;;;;2.75;2.75;;;;;26.95;39.40;101326.06;4932367;28;46183;-73
2021/08/02 04:47:10;;;;;;;;;3.00;3.00;;;;;26.95;39.75;101322.56;4932623;28;45259;-72
2021/08/02 04:49:35;;;;;;;;;3.00;3.00;;;;;26.95;39.51;101322.56;4933704;28;45619;-72
2021/08/02 04:52:01;;;;;;;;;1.75;1.75;;;;;26.96;39.69;101326.84;4926954;28;45551;-72
2021/08/02 04:54:26;;;;;;;;;2.67;1.33;;;;;26.95;39.72;101328.72;4931091;28;45530;-72
2021/08/02 04:56:52;;;;;;;;;2.75;2.75;;;;;26.96;39.49;101329.53;4934126;28;45467;-73
2021/08/02 04:59:17;;;;;;;;;3.00;3.00;;;;;26.94;39.60;101326.25;4926650;28;45719;-72
2021/08/02 05:01:42;;;;;;;;;5.00;2.75;;;;;26.97;39.41;101336.53;4927631;28;45476;-72
2021/08/02 05:04:08;;;;;;;;;1.00;1.00;;;;;26.94;39.77;101323.56;4931798;28;47092;-72
2021/08/02 05:06:33;;;;;;;;;6.00;3.25;;;;;26.97;40.01;101328.53;4926405;28;45444;-72
2021/08/02 05:08:59;;;;;;;;;3.00;2.00;;;;;26.93;39.46;101325.41;4932457;28;45477;-72
2021/08/02 05:11:24;;;;;;;;;5.00;3.50;;;;;26.88;39.67;101317.19;4929243;28;45465;-72
2021/08/02 05:13:49;;;;;;;;;4.00;2.00;;;;;26.93;39.81;101325.41;4930236;28;45548;-72
2021/08/02 05:16:15;;;;;;;;;3.00;3.00;;;;;26.98;39.84;101332.03;4931399;28;45675;-72
2021/08/02 05:18:40;;;;;;;;;4.00;2.25;;;;;26.97;39.50;101336.53;4932046;28;45420;-70
2021/08/02 05:21:05;;;;;;;;;2.00;2.00;;;;;26.95;39.56;101330.56;4930847;28;45383;-74
2021/08/02 05:23:32;;;;;;;;;2.00;2.00;;;;;26.90;40.04;101322.34;4935799;28;46083;-72
2021/08/02 05:25:57;;;;;;;;;2.00;2.00;;;;;26.96;39.79;101332.19;4930411;28;45448;-73
2021/08/02 05:28:23;;;;;;;;;3.00;3.00;;;;;26.93;39.73;101322.75;4934205;28;45404;-72
2021/08/02 05:30:48;;;;;;;;;3.25;2.25;;;;;26.95;39.73;101325.25;4929191;28;45596;-69
2021/08/02 05:33:14;;;;;;;;;1.75;1.75;;;;;26.89;40.00;101321.53;4932585;28;45997;-71
2021/08/02 05:35:40;;;;;;;;;5.50;3.00;;;;;26.94;39.62;101334.25;4930102;28;45475;-71
2021/08/02 05:38:05;;;;;;;;;3.25;2.50;;;;;26.94;39.76;101337.75;4930025;28;45405;-70
2021/08/02 05:40:31;;;;;;;;;1.75;1.75;;;;;26.94;39.78;101334.25;4931972;28;45428;-69
2021/08/02 05:42:56;;;;;;;;;3.00;3.00;;;;;26.94;39.91;101328.91;4935182;28;45220;-72
2021/08/02 05:45:21;;;;;;;;;2.00;0.50;;;;;26.92;40.00;101326.47;4936350;28;45448;-72
2021/08/02 05:47:47;;;;;;;;;3.00;3.00;;;;;26.92;40.02;101331.81;4938023;28;45369;-72
2021/08/02 05:50:12;;;;;;;;;4.00;3.00;;;;;26.90;40.44;101323.19;4934609;28;45429;-72
2021/08/02 05:52:38;;;;;;;;;3.75;2.50;;;;;26.91;40.04;101326.66;4935217;28;47111;-72
2021/08/02 05:55:04;;;;;;;;;2.00;2.00;;;;;26.93;40.34;101327.28;4936611;28;47000;-71
2021/08/02 05:57:29;;;;;;;;;2.25;2.25;;;;;26.95;40.35;101335.91;4936669;28;45452;-72
2021/08/02 05:59:54;;;;;;;;;2.00;2.00;;;;;26.95;40.20;101334.06;4939369;28;45334;-73
2021/08/02 06:02:20;;;;;;;;;2.00;2.00;;;;;26.97;40.34;101336.53;4936432;28;45440;-73
2021/08/02 06:04:45;;;;;;;;;3.00;3.00;;;;;26.96;40.50;101327.69;4935691;28;46611;-73
2021/08/02 06:07:11;;;;;;;;;3.75;1.75;;;;;26.95;40.07;101330.56;4936512;28;45377;-73
2021/08/02 06:09:36;;;;;;;;;2.00;2.00;;;;;26.99;40.47;101330.97;4935779;28;45357;-74
2021/08/02 06:12:01;;;;;;;;;9.50;5.00;;;;;26.99;40.51;101328.31;4938534;28;45312;-72
2021/08/02 06:14:27;;;;;;;;;4.00;3.75;;;;;26.92;40.46;101329.13;4935612;28;45533;-72
2021/08/02 06:16:52;;;;;;;;;4.00;2.75;;;;;26.92;40.52;101336.31;4937328;28;45552;-72
2021/08/02 06:19:19;;;;;;;;;5.00;5.00;;;;;26.90;40.58;101333.84;4938490;28;45437;-72
2021/08/02 06:21:44;;;;;;;;;4.25;3.25;;;;;26.89;40.22;101332.19;4938397;28;46383;-72
2021/08/02 06:24:09;;;;;;;;;4.00;4.00;;;;;26.92;40.91;101329.13;4938502;28;45413;-72
2021/08/02 06:26:36;;;;;;;;;3.50;3.50;;;;;26.94;41.11;101334.25;4939132;28;45399;-72
2021/08/02 06:29:02;;;;;;;;;4.00;2.67;;;;;26.97;40.68;101341.88;4938449;28;45457;-72
2021/08/02 06:31:28;;;;;;;;;5.00;3.75;;;;;26.98;40.98;101343.53;4937931;28;47467;-72
2021/08/02 06:33:53;;;;;;;;;3.50;2.75;;;;;26.97;40.75;101339.19;4937815;28;45477;-73
2021/08/02 06:36:20;;;;;;;;;3.25;3.25;;;;;27.00;40.69;101338.81;4938493;28;45480;-73
2021/08/02 06:38:46;;;;;;;;;3.25;3.00;;;;;27.00;40.62;101346.81;4939206;28;45333;-72
2021/08/02 06:41:11;;;;;;;;;2.00;2.00;;;;;27.01;40.66;101347.63;4938412;28;46141;-72
2021/08/02 06:43:36;;;;;;;;;2.25;2.25;;;;;27.02;40.61;101350.09;4937905;28;45452;-73
2021/08/02 06:46:02;;;;;;;;;3.50;2.50;;;;;26.99;40.61;101347.00;4938322;28;45625;-72
2021/08/02 06:48:27;;;;;;;;;2.25;2.25;;;;;27.03;40.41;101350.94;4951961;28;45244;-73
2021/08/02 06:50:53;;;;;;;;;2.00;2.00;;;;;27.01;40.46;101347.63;4938729;28;46006;-72
2021/08/02 06:53:18;;;;;;;;;5.25;2.00;;;;;27.02;40.91;101347.44;4938003;28;45453;-72
2021/08/02 06:55:44;;;;;;;;;3.50;3.00;;;;;27.03;40.44;101358.94;4938002;28;45554;-73
2021/08/02 06:58:10;;;;;;;;;2.00;2.00;;;;;27.01;40.66;101352.97;4938217;28;45392;-72
2021/08/02 07:00:35;;;;;;;;;2.50;2.00;;;;;27.03;40.60;101359.75;4937778;28;47019;-73
2021/08/02 07:03:00;;;;;;;;;2.50;2.00;;;;;27.05;40.58;101363.06;4937749;28;45399;-72
2021/08/02 07:05:27;;;;;;;;;3.50;3.00;;;;;27.04;40.57;101360.56;4937977;28;45808;-72
2021/08/02 07:07:53;;;;;;;;;2.50;2.50;;;;;27.04;40.45;101368.56;4937796;28;45481;-72
2021/08/02 07:10:18;;;;;;;;;3.25;3.25;;;;;27.03;40.75;101358.94;4937483;28;47163;-73
2021/08/02 07:12:44;;;;;;;;;3.00;2.00;;;;;26.97;40.40;101357.88;4937662;28;45421;-72
2021/08/02 07:15:09;;;;;;;;;2.50;2.50;;;;;27.03;40.51;101364.28;4937956;28;45398;-72
2021/08/02 07:17:35;;;;;;;;;3.25;1.50;;;;;27.03;40.62;101361.59;4938017;28;45361;-72
2021/08/02 07:20:00;;;;;;;;;3.75;3.75;;;;;27.03;40.89;101369.63;4937723;28;46993;-72
2021/08/02 07:22:25;;;;;;;;;2.00;2.00;;;;;27.03;40.45;101366.94;4937725;28;45405;-72
2021/08/02 07:24:51;;;;;;;;;2.75;2.75;;;;;27.03;40.50;101367.78;4937695;28;45521;-72
2021/08/02 07:27:16;;;;;;;;;3.00;3.00;;;;;27.03;40.53;101362.44;4937855;28;45453;-73
2021/08/02 07:29:41;;;;;;;;;2.75;2.75;;;;;27.03;40.58;101365.09;4938186;28;46183;-72
2021/08/02 07:32:07;;;;;;;;;3.00;3.00;;;;;27.04;40.36;101368.56;4937023;28;45347;-72
2021/08/02 07:34:32;;;;;;;;;4.50;4.50;;;;;27.03;40.43;101362.44;4937075;28;45402;-73
2021/08/02 07:36:58;;;;;;;;;2.33;2.33;;;;;27.04;40.60;101363.22;4937522;28;45368;-72
2021/08/02 07:39:23;;;;;;;;;4.00;4.00;;;;;27.05;40.49;101368.38;4937499;28;46045;-73
2021/08/02 07:41:49;;;;;;;;;2.50;2.00;;;;;27.03;40.45;101364.28;4938110;28;45339;-72
2021/08/02 07:44:14;;;;;;;;;4.75;3.00;;;;;27.04;40.50;101364.06;4936518;28;45454;-72
2021/08/02 07:46:39;;;;;;;;;3.50;3.50;;;;;27.04;40.40;101366.72;4936924;28;45242;-73
2021/08/02 07:49:05;;;;;;;;;3.50;2.75;;;;;27.06;40.48;101370.03;4937224;28;46188;-72
2021/08/02 07:51:31;;;;;;;;;4.25;2.50;;;;;27.05;40.60;101375.56;4937230;28;45384;-72
2021/08/02 07:53:58;;;;;;;;;2.75;2.75;;;;;27.08;40.50;101369.84;4938172;28;45382;-72
2021/08/02 07:56:24;;;;;;;;;3.00;3.00;;;;;27.07;40.33;101374.34;4937442;28;45341;-72
2021/08/02 07:58:49;;;;;;;;;3.00;2.00;;;;;27.06;40.62;101370.03;4937043;28;46946;-72
2021/08/02 08:01:15;;;;;;;;;3.00;3.00;;;;;27.07;40.72;101376.19;4936658;28;45293;-73
2021/08/02 08:03:42;;;;;;;;;4.00;4.00;;;;;27.05;40.04;101371.06;4937136;28;45580;-73
2021/08/02 08:06:08;;;;;;;;;3.00;3.00;;;;;27.07;40.28;101373.53;4937475;28;45449;-72
2021/08/02 08:08:33;;;;;;;;;3.75;3.75;;;;;27.06;40.48;101372.69;4937295;28;45537;-73
2021/08/02 08:10:59;;;;;;;;;3.00;3.00;;;;;27.09;40.34;101373.34;4936817;28;45271;-72
2021/08/02 08:13:24;;;;;;;;;3.00;3.00;;;;;27.07;40.57;101366.34;4936727;28;45905;-72
2021/08/02 08:15:49;;;;;;;;;3.25;2.50;;;;;27.08;40.79;101377.84;4936691;28;45406;-72
2021/08/02 08:18:15;;;;;;;;;3.00;3.00;;;;;27.02;40.55;101368.78;4936838;28;45418;-72
2021/08/02 08:20:40;;;;;;;;;7.25;3.75;;;;;27.07;40.78;101370.84;4937502;28;45453;-73
2021/08/02 08:23:06;;;;;;;;;2.75;2.75;;;;;27.06;40.35;101371.88;4936685;28;45204;-72
2021/08/02 08:25:32;;;;;;;;;3.75;3.75;;;;;27.08;40.48;101383.19;4936744;28;45454;-72
2021/08/02 08:27:58;;;;;;;;;3.00;3.00;;;;;27.07;40.77;101378.84;4936629;28;46891;-72
2021/08/02 08:30:23;;;;;;;;;3.75;3.75;;;;;27.06;40.35;101372.69;4936398;28;45653;-72
2021/08/02 08:32:48;;;;;;;;;4.50;4.00;;;;;27.06;40.50;101370.03;4936215;28;45505;-72
2021/08/02 08:35:14;;;;;;;;;3.00;2.25;;;;;27.04;40.61;101372.06;4936376;28;45439;-72
2021/08/02 08:37:40;;;;;;;;;3.00;3.00;;;;;27.06;40.66;101372.69;4936591;28;46535;-73
2021/08/02 08:40:07;;;;;;;;;4.50;2.50;;;;;27.07;40.62;101366.34;4936579;28;45482;-72
2021/08/02 08:42:33;;;;;;;;;3.00;2.00;;;;;27.08;40.44;101367.16;4936827;28;45397;-72
2021/08/02 08:44:59;;;;;;;;;5.25;4.50;;;;;27.09;40.61;101368.78;4936554;28;45359;-72
2021/08/02 08:47:25;;;;;;;;;3.25;2.50;;;;;27.08;40.55;101367.16;4936446;28;46226;-72
2021/08/02 08:49:50;;;;;;;;;2.25;2.25;;;;;27.07;40.60;101369.00;4936419;28;46097;-72
2021/08/02 08:52:16;;;;;;;;;2.00;2.00;;;;;27.07;40.69;101363.66;4936419;28;45398;-73
2021/08/02 08:54:42;;;;;;;;;2.50;2.00;;;;;27.06;40.51;101355.88;4936489;28;45618;-73
2021/08/02 08:57:12;;;;;;;;;5.75;4.25;;;;;27.07;39.96;101363.66;4938777;28;47193;-72
2021/08/02 08:59:48;;;;;;;;;4.00;3.00;;;;;27.11;40.12;101372.09;4940062;28;45350;-73
2021/08/02 09:02:14;;;;;;;;;4.00;4.00;;;;;27.12;40.56;101367.56;4939652;28;45274;-73
2021/08/02 09:04:40;;;;;;;;;3.25;3.25;;;;;27.12;40.21;101368.41;4939550;28;45422;-72
2021/08/02 09:07:06;;;;;;;;;5.00;4.50;;;;;27.12;40.47;101368.41;4939476;28;46905;-72
2021/08/02 09:09:34;;;;;;;;;5.50;4.50;;;;;27.13;40.50;101374.59;4939588;28;45587;-73
2021/08/02 09:12:16;;;;;;;;;4.00;3.00;;;;;27.13;40.64;101367.41;4940049;28;45379;-73
2021/08/02 09:14:56;;;;;;;;;3.00;3.00;;;;;27.14;40.67;101366.38;4938147;28;45350;-72
2021/08/02 09:17:36;;;;;;;;;3.75;2.25;;;;;27.14;40.67;101363.69;4939614;28;46077;-72
2021/08/02 09:20:23;;;;;;;;;4.75;3.00;;;;;27.16;40.37;101359.00;4939357;28;45405;-73
2021/08/02 09:22:50;;;;;;;;;3.00;3.00;;;;;27.15;40.51;101354.66;4939430;28;45472;-72
2021/08/02 09:25:20;;;;;;;;;3.50;3.50;;;;;27.15;40.49;101357.34;4939270;28;45517;-72
2021/08/02 09:27:48;;;;;;;;;3.00;3.00;;;;;27.19;40.17;101360.44;4938833;28;46298;-72
2021/08/02 09:30:13;;;;;;;;;3.50;3.50;;;;;27.20;40.34;101359.41;4939485;28;45360;-73
2021/08/02 09:33:06;;;;;;;;;5.50;4.50;;;;;27.21;40.35;101362.91;4937685;28;45373;-73
2021/08/02 09:35:38;;;;;;;;;4.25;4.25;;;;;27.18;40.68;101353.44;4936256;28;45369;-72
2021/08/02 09:38:11;;;;;;;;;3.00;3.00;;;;;27.15;40.69;101354.66;4939024;28;47284;-73
2021/08/02 09:40:45;;;;;;;;;4.00;4.00;;;;;27.20;40.15;101358.56;4938820;28;45462;-72
2021/08/02 09:43:19;;;;;;;;;3.50;3.50;;;;;27.22;40.19;101359.22;4938623;28;45432;-73
2021/08/02 09:45:53;;;;;;;;;7.00;4.00;;;;;27.14;40.25;101339.66;4938983;28;45469;-73
2021/08/02 09:48:20;;;;;;;;;3.50;3.50;;;;;27.22;40.45;101353.88;4939028;28;45555;-73
2021/08/02 09:50:48;;;;;;;;;3.00;3.00;;;;;27.20;40.05;101348.72;4939594;28;45405;-72
2021/08/02 09:53:16;;;;;;;;;4.75;4.75;;;;;27.23;40.78;101350.16;4938958;28;45318;-72
2021/08/02 09:55:43;;;;;;;;;4.00;2.75;;;;;27.23;40.85;101350.16;4939118;28;47249;-73
2021/08/02 09:58:18;;;;;;;;;5.50;5.00;;;;;27.22;40.69;101360.00;4938326;28;46304;-72
2021/08/02 10:00:43;;;;;;;;;4.00;4.00;;;;;27.21;40.88;101352.22;4938877;28;45548;-73
2021/08/02 10:03:09;;;;;;;;;4.00;2.75;;;;;27.24;40.46;101354.47;4939067;28;45405;-72
2021/08/02 10:05:38;;;;;;;;;4.25;4.25;;;;;27.23;40.50;101352.81;4939438;28;45485;-73
2021/08/02 10:08:05;;;;;;;;;7.25;4.50;;;;;27.22;40.12;101349.31;4938141;28;46190;-72
2021/08/02 10:10:31;;;;;;;;;3.25;3.25;;;;;27.22;40.41;101341.31;4938108;28;45346;-72
2021/08/02 10:12:56;;;;;;;;;5.00;5.00;;;;;27.22;40.18;101343.97;4938379;28;45351;-72
2021/08/02 10:15:27;;;;;;;;;6.00;6.00;;;;;27.26;40.59;101347.09;4938681;28;45396;-73
2021/08/02 10:17:55;;;;;;;;;6.25;5.50;;;;;27.25;40.35;101343.59;4939251;28;46160;-73
2021/08/02 10:20:26;;;;;;;;;3.25;3.25;;;;;27.26;40.09;101339.06;4941948;28;45277;-72
2021/08/02 10:22:52;;;;;;;;;4.25;4.25;;;;;27.24;40.00;101339.28;4938528;28;45484;-72
2021/08/02 10:25:18;;;;;;;;;5.25;4.00;;;;;27.26;40.27;101345.25;4938435;28;45587;-72
2021/08/02 10:27:43;;;;;;;;;3.75;3.75;;;;;27.25;40.60;101346.25;4937975;28;46202;-72
2021/08/02 10:30:25;;;;;;;;;4.00;3.00;;;;;27.25;40.46;101343.59;4938606;28;45571;-73
2021/08/02 10:32:55;;;;;;;;;4.00;4.00;;;;;27.24;40.00;101349.97;4938626;28;45500;-72
2021/08/02 10:35:56;;;;;;;;;4.25;4.25;;;;;27.25;40.29;101353.44;4938349;28;45306;-73
2021/08/02 10:38:22;;;;;;;;;7.50;4.50;;;;;27.24;40.43;101357.97;4936696;28;46180;-73
2021/08/02 10:40:50;;;;;;;;;6.75;6.75;;;;;27.24;40.65;101365.16;4937719;28;45297;-72
2021/08/02 10:43:31;;;;;;;;;5.00;4.00;;;;;27.25;40.26;101372.13;4938360;28;45285;-73
2021/08/02 10:45:58;;;;;;;;;4.50;3.00;;;;;27.24;40.85;101367.84;4938303;28;45546;-73
2021/08/02 10:48:26;;;;;;;;;3.50;3.50;;;;;27.22;40.37;101368.03;4938049;28;46250;-72
2021/08/02 10:50:52;;;;;;;;;5.50;5.50;;;;;27.22;40.55;101372.56;4938834;28;45286;-72
2021/08/02 10:53:18;;;;;;;;;6.75;4.50;;;;;27.23;40.37;101367.00;4938003;28;45532;-73
2021/08/02 10:55:45;;;;;;;;;6.00;6.00;;;;;27.20;40.72;101359.41;4937730;28;45362;-73
2021/08/02 10:58:10;;;;;;;;;7.50;6.00;;;;;27.18;40.65;101361.47;4937847;28;46485;-72
2021/08/02 11:00:37;;;;;;;;;5.00;5.00;;;;;27.14;40.24;101345.00;4937828;28;47716;-73
2021/08/02 11:03:05;;;;;;;;;7.00;4.00;;;;;27.22;40.53;101362.69;4938285;28;45235;-72
2021/08/02 11:05:32;;;;;;;;;4.50;4.50;;;;;27.20;40.63;101364.75;4937513;28;45481;-73
2021/08/02 11:08:05;;;;;;;;;4.25;4.25;;;;;27.20;40.46;101358.56;4937809;28;45403;-72
2021/08/02 11:10:32;;;;;;;;;5.25;4.25;;;;;27.20;40.53;101356.72;4937313;28;45797;-73
2021/08/02 11:12:57;;;;;;;;;4.00;4.00;;;;;27.21;40.74;101355.72;4937906;28;45499;-73
2021/08/02 11:15:22;;;;;;;;;7.00;5.00;;;;;27.18;40.25;101356.13;4938009;28;45379;-72
2021/08/02 11:17:53;;;;;;;;;4.50;4.50;;;;;27.19;40.32;101349.75;4938274;28;46042;-72
2021/08/02 11:20:19;;;;;;;;;4.75;4.75;;;;;27.21;40.59;101353.03;4940447;28;45322;-72
2021/08/02 11:22:51;;;;;;;;;5.00;5.00;;;;;27.21;40.45;101349.53;4937536;28;45288;-72
2021/08/02 11:25:43;;;;;;;;;5.50;4.75;;;;;27.23;40.56;101358.16;4935842;28;45500;-73
2021/08/02 11:28:08;;;;;;;;;4.00;4.00;;;;;27.21;40.58;101353.03;4934508;28;45468;-73